Time;durP1;ratioP1;P1;durP2;ratioP2;P2;SDS_P1;SDS_P2;PMS_P1;PMS_P2;Temp;Humidity;BMP_temperature;BMP_pressure;BME280_temperature;BME280_humidity;BME280_pressure;Samples;Min_cycle;Max_cycle;Signal;HPM_P1;HPM_P2
2023/07/01 00:02:12;;;;;;;;;;;17.00;99.90;;;;;;5050442;28;19932;-92
2023/07/01 00:04:38;;;;;;;;;;;17.00;99.90;;;;;;5044325;28;19948;-91
2023/07/01 00:07:04;;;;;;;;;;;17.00;99.90;;;;;;5048181;28;19925;-91
2023/07/01 00:09:30;;;;;;;;;;;17.00;99.90;;;;;;5056192;28;20355;-92
2023/07/01 00:11:55;;;;;;;;;;;17.00;99.90;;;;;;5040815;28;19926;-90
2023/07/01 00:14:21;;;;;;;;;;;17.00;99.90;;;;;;5046335;28;19948;-90
2023/07/01 00:16:46;;;;;;;;;;;17.00;99.90;;;;;;5022618;28;19968;-93
2023/07/01 00:19:12;;;;;;;;;;;17.00;99.90;;;;;;5049464;28;19932;-92
2023/07/01 00:21:38;;;;;;;;;;;17.00;99.90;;;;;;5034882;28;19925;-91
2023/07/01 00:24:03;;;;;;;;;;;17.00;99.90;;;;;;5053094;28;19933;-92
2023/07/01 00:26:29;;;;;;;;;;;17.00;99.90;;;;;;5050590;28;20369;-91
2023/07/01 00:28:54;;;;;;;;;;;17.00;99.90;;;;;;5049313;28;20034;-92
2023/07/01 00:31:20;;;;;;;;;;;16.90;99.90;;;;;;5044777;28;20009;-92
2023/07/01 00:33:46;;;;;;;;;;;16.90;99.90;;;;;;5039206;28;19931;-91
2023/07/01 00:36:11;;;;;;;;;;;16.90;99.90;;;;;;5038073;28;19976;-91
2023/07/01 00:38:37;;;;;;;;;;;16.90;99.90;;;;;;5038414;28;20377;-91
2023/07/01 00:41:02;;;;;;;;;;;16.90;99.90;;;;;;5047497;28;19929;-92
2023/07/01 00:43:28;;;;;;;;;;;16.90;99.90;;;;;;5038876;28;20002;-94
2023/07/01 00:45:54;;;;;;;;;;;16.90;99.90;;;;;;5052024;28;19925;-92
2023/07/01 00:48:24;;;;;;;;;;;16.90;99.90;;;;;;5046802;28;19926;-91
2023/07/01 00:50:50;;;;;;;;;;;16.90;99.90;;;;;;5051064;28;20264;-92
2023/07/01 00:53:16;;;;;;;;;;;16.90;99.90;;;;;;5052280;28;19990;-91
2023/07/01 00:55:42;;;;;;;;;;;16.90;99.90;;;;;;5045282;28;19926;-92
2023/07/01 00:58:08;;;;;;;;;;;16.90;99.90;;;;;;5038592;28;19926;-93
2023/07/01 01:00:33;;;;;;;;;;;16.90;99.90;;;;;;5034758;28;19932;-91
2023/07/01 01:03:04;;;;;;;;;;;16.90;99.90;;;;;;5050716;28;19925;-92
2023/07/01 01:05:33;;;;;;;;;;;16.90;99.90;;;;;;5054272;28;19925;-92
2023/07/01 01:07:59;;;;;;;;;;;16.90;99.90;;;;;;5047237;28;20357;-91
2023/07/01 01:10:25;;;;;;;;;;;16.90;99.90;;;;;;5053663;28;19929;-91
2023/07/01 01:12:53;;;;;;;;;;;17.00;99.90;;;;;;5046047;28;20439;-92
2023/07/01 01:15:19;;;;;;;;;;;16.90;99.90;;;;;;5052927;28;19951;-91
2023/07/01 01:17:45;;;;;;;;;;;16.90;99.90;;;;;;5045054;28;19962;-93
2023/07/01 01:20:16;;;;;;;;;;;16.90;99.90;;;;;;5045371;28;20364;-92
2023/07/01 01:22:44;;;;;;;;;;;16.90;99.90;;;;;;5037615;28;19924;-92
2023/07/01 01:25:13;;;;;;;;;;;16.90;99.90;;;;;;5045610;28;20433;-91
2023/07/01 01:27:42;;;;;;;;;;;16.90;99.90;;;;;;5051835;28;19925;-92
2023/07/01 01:30:09;;;;;;;;;;;16.90;99.90;;;;;;5040310;28;19941;-92
2023/07/01 01:32:34;;;;;;;;;;;16.90;99.90;;;;;;5025440;28;20031;-94
2023/07/01 01:35:01;;;;;;;;;;;16.90;99.90;;;;;;5052759;28;20019;-91
2023/07/01 01:37:33;;;;;;;;;;;16.90;99.90;;;;;;5053619;28;19925;-91
2023/07/01 01:40:09;;;;;;;;;;;16.90;99.90;;;;;;5043049;28;19924;-91
2023/07/01 01:42:35;;;;;;;;;;;16.90;99.90;;;;;;5041691;28;19925;-91
2023/07/01 01:45:03;;;;;;;;;;;16.90;99.90;;;;;;5046617;28;20383;-92
2023/07/01 01:47:30;;;;;;;;;;;16.90;99.90;;;;;;5050712;28;19932;-91
2023/07/01 01:49:58;;;;;;;;;;;16.80;99.90;;;;;;5053426;28;20021;-92
2023/07/01 01:52:24;;;;;;;;;;;16.90;99.90;;;;;;5050411;28;19925;-93
2023/07/01 01:54:54;;;;;;;;;;;16.80;99.90;;;;;;5040760;28;19933;-93
2023/07/01 01:57:20;;;;;;;;;;;16.80;99.90;;;;;;5039060;28;19935;-92
2023/07/01 01:59:46;;;;;;;;;;;16.80;99.90;;;;;;5047304;28;19925;-93
2023/07/01 02:02:11;;;;;;;;;;;16.70;99.90;;;;;;5051172;28;19928;-91
2023/07/01 02:04:37;;;;;;;;;;;16.60;99.90;;;;;;5047396;28;19912;-90
2023/07/01 02:07:03;;;;;;;;;;;16.60;99.90;;;;;;5051337;28;19984;-91
2023/07/01 02:09:28;;;;;;;;;;;16.50;99.90;;;;;;5060485;28;20364;-93
2023/07/01 02:11:54;;;;;;;;;;;16.50;99.90;;;;;;5065448;28;19932;-94
2023/07/01 02:14:20;;;;;;;;;;;16.40;99.90;;;;;;5069367;28;19929;-92
2023/07/01 02:16:46;;;;;;;;;;;16.30;99.90;;;;;;5034664;28;19932;-91
2023/07/01 02:19:11;;;;;;;;;;;16.30;99.90;;;;;;5053871;28;19925;-92
2023/07/01 02:21:37;;;;;;;;;;;16.30;99.90;;;;;;5031827;28;19955;-94
2023/07/01 02:24:03;;;;;;;;;;;16.30;99.90;;;;;;5036789;28;19937;-93
2023/07/01 02:26:29;;;;;;;;;;;16.20;99.90;;;;;;5035209;28;20377;-92
2023/07/01 02:28:55;;;;;;;;;;;16.20;99.90;;;;;;5042352;28;19932;-93
2023/07/01 02:31:20;;;;;;;;;;;16.20;99.90;;;;;;5031637;28;20399;-92
2023/07/01 02:33:46;;;;;;;;;;;16.20;99.90;;;;;;5036150;28;19925;-92
2023/07/01 02:36:12;;;;;;;;;;;16.20;99.90;;;;;;5045971;28;19925;-93
2023/07/01 02:38:38;;;;;;;;;;;16.20;99.90;;;;;;5045596;28;19933;-91
2023/07/01 02:41:03;;;;;;;;;;;16.20;99.90;;;;;;5049232;28;19925;-92
2023/07/01 02:43:29;;;;;;;;;;;16.20;99.90;;;;;;5038939;28;19943;-91
2023/07/01 02:45:54;;;;;;;;;;;16.20;99.90;;;;;;5057584;28;19931;-93
2023/07/01 02:48:20;;;;;;;;;;;16.30;99.90;;;;;;5048442;28;19967;-91
2023/07/01 02:50:45;;;;;;;;;;;16.30;99.90;;;;;;5051389;28;19932;-93
2023/07/01 02:53:11;;;;;;;;;;;16.20;99.90;;;;;;5052115;28;19972;-92
2023/07/01 02:55:36;;;;;;;;;;;16.30;99.90;;;;;;5051228;28;19944;-88
2023/07/01 02:58:02;;;;;;;;;;;16.30;99.90;;;;;;5051410;28;19931;-93
2023/07/01 03:00:28;;;;;;;;;;;16.30;99.90;;;;;;5052309;28;20439;-93
2023/07/01 03:02:53;;;;;;;;;;;16.30;99.90;;;;;;5049248;28;19936;-91
2023/07/01 03:05:21;;;;;;;;;;;16.30;99.90;;;;;;5051568;28;20017;-92
2023/07/01 03:07:47;;;;;;;;;;;16.30;99.90;;;;;;5046913;28;19932;-91
2023/07/01 03:10:13;;;;;;;;;;;16.20;99.90;;;;;;5048392;28;19929;-92
2023/07/01 03:12:39;;;;;;;;;;;16.10;99.90;;;;;;5043458;28;19968;-94
2023/07/01 03:15:05;;;;;;;;;;;16.10;99.90;;;;;;5050495;28;20364;-92
2023/07/01 03:17:31;;;;;;;;;;;16.10;99.90;;;;;;5052950;28;20360;-94
2023/07/01 03:19:57;;;;;;;;;;;16.00;99.90;;;;;;5045984;28;20306;-93
2023/07/01 03:22:22;;;;;;;;;;;16.00;99.90;;;;;;5046824;28;19928;-93
2023/07/01 03:24:48;;;;;;;;;;;15.90;99.90;;;;;;5029327;28;19979;-94
2023/07/01 03:27:14;;;;;;;;;;;15.90;99.90;;;;;;5034167;28;19942;-93
2023/07/01 03:29:39;;;;;;;;;;;15.80;99.90;;;;;;5050961;28;19925;-93
2023/07/01 03:32:05;;;;;;;;;;;15.80;99.90;;;;;;5052019;28;19924;-94
2023/07/01 03:34:31;;;;;;;;;;;15.80;99.90;;;;;;5035927;28;19979;-90
2023/07/01 03:36:56;;;;;;;;;;;15.80;99.90;;;;;;5040489;28;20007;-94
2023/07/01 03:39:22;;;;;;;;;;;15.70;99.90;;;;;;5052829;28;20280;-94
2023/07/01 03:41:47;;;;;;;;;;;15.60;99.90;;;;;;5030966;28;19926;-92
2023/07/01 03:44:13;;;;;;;;;;;15.60;99.90;;;;;;5052853;28;19929;-93
2023/07/01 03:46:39;;;;;;;;;;;15.60;99.90;;;;;;5049435;28;19995;-90
2023/07/01 03:49:04;;;;;;;;;;;15.60;99.90;;;;;;5048874;28;20357;-95
2023/07/01 03:51:30;;;;;;;;;;;15.60;99.90;;;;;;5046528;28;19939;-93
2023/07/01 03:53:56;;;;;;;;;;;15.60;99.90;;;;;;5048065;28;19987;-93
2023/07/01 03:56:21;;;;;;;;;;;15.60;99.90;;;;;;5039773;28;20324;-94
2023/07/01 03:58:47;;;;;;;;;;;15.50;99.90;;;;;;5043849;28;20389;-91
2023/07/01 04:01:16;;;;;;;;;;;15.50;99.90;;;;;;5045434;28;19967;-93
2023/07/01 04:03:41;;;;;;;;;;;15.60;99.90;;;;;;5047829;28;19925;-93
2023/07/01 04:06:07;;;;;;;;;;;15.50;99.90;;;;;;5044218;28;19925;-90
2023/07/01 04:08:33;;;;;;;;;;;15.60;99.90;;;;;;5037197;28;19925;-93
2023/07/01 04:10:59;;;;;;;;;;;15.60;99.90;;;;;;5048492;28;20321;-92
2023/07/01 04:13:24;;;;;;;;;;;15.60;99.90;;;;;;5047937;28;20345;-94
2023/07/01 04:15:50;;;;;;;;;;;15.60;99.90;;;;;;5047285;28;19987;-92
2023/07/01 04:18:16;;;;;;;;;;;15.70;99.90;;;;;;5034625;28;19943;-93
2023/07/01 04:20:41;;;;;;;;;;;15.70;99.90;;;;;;5046685;28;19933;-93
2023/07/01 04:23:07;;;;;;;;;;;15.70;99.90;;;;;;5048005;28;20019;-93
2023/07/01 04:25:32;;;;;;;;;;;15.70;99.90;;;;;;5030316;28;19925;-94
2023/07/01 04:27:59;;;;;;;;;;;15.70;99.90;;;;;;5048970;28;20020;-91
2023/07/01 04:30:24;;;;;;;;;;;15.70;99.90;;;;;;5047166;28;20020;-91
2023/07/01 04:32:50;;;;;;;;;;;15.80;99.90;;;;;;5028973;28;20022;-94
2023/07/01 04:35:15;;;;;;;;;;;15.80;99.90;;;;;;5046930;28;19924;-94
2023/07/01 04:37:41;;;;;;;;;;;15.80;99.90;;;;;;5032303;28;19935;-94
2023/07/01 04:40:07;;;;;;;;;;;15.80;99.90;;;;;;5029323;28;19931;-92
2023/07/01 04:42:34;;;;;;;;;;;15.80;99.90;;;;;;5040798;28;20395;-90
2023/07/01 04:45:05;;;;;;;;;;;15.90;99.90;;;;;;5043551;28;19937;-95
2023/07/01 04:47:31;;;;;;;;;;;15.90;99.90;;;;;;5032194;28;19929;-94
2023/07/01 04:49:56;;;;;;;;;;;15.90;99.90;;;;;;5064836;28;19967;-94
2023/07/01 04:52:22;;;;;;;;;;;15.90;99.90;;;;;;5063678;28;20368;-96
2023/07/01 04:54:48;;;;;;;;;;;16.00;99.90;;;;;;5023114;28;20388;-95
2023/07/01 04:57:15;;;;;;;;;;;16.00;99.90;;;;;;5020024;28;19925;-96
2023/07/01 04:59:40;;;;;;;;;;;16.00;99.90;;;;;;5056767;28;19968;-93
2023/07/01 05:02:06;;;;;;;;;;;16.10;99.90;;;;;;5040660;28;19970;-92
2023/07/01 05:04:32;;;;;;;;;;;16.10;99.90;;;;;;5043071;28;20021;-94
2023/07/01 05:06:57;;;;;;;;;;;16.10;99.90;;;;;;5049386;28;19925;-93
2023/07/01 05:09:23;;;;;;;;;;;16.10;99.90;;;;;;5045981;28;19925;-91
2023/07/01 05:11:48;;;;;;;;;;;16.10;99.90;;;;;;5053021;28;19980;-93
2023/07/01 05:14:14;;;;;;;;;;;16.10;99.90;;;;;;5047504;28;19925;-93
2023/07/01 05:16:40;;;;;;;;;;;16.20;99.90;;;;;;5040681;28;19979;-93
2023/07/01 05:19:05;;;;;;;;;;;16.20;99.90;;;;;;5033982;28;19925;-91
2023/07/01 05:21:32;;;;;;;;;;;16.20;99.90;;;;;;5045571;28;19925;-94
2023/07/01 05:23:58;;;;;;;;;;;16.20;99.90;;;;;;5034305;28;19960;-93
2023/07/01 05:26:23;;;;;;;;;;;16.30;99.90;;;;;;5041789;28;20022;-93
2023/07/01 05:28:49;;;;;;;;;;;16.30;99.90;;;;;;5053906;28;19925;-91
2023/07/01 05:31:15;;;;;;;;;;;16.30;99.90;;;;;;5056254;28;20008;-94
2023/07/01 05:33:43;;;;;;;;;;;16.40;99.90;;;;;;5061536;28;19956;-95
2023/07/01 05:36:09;;;;;;;;;;;16.30;99.90;;;;;;5059844;28;19924;-95
2023/07/01 05:38:34;;;;;;;;;;;16.30;99.90;;;;;;5054869;28;19950;-94
2023/07/01 05:41:00;;;;;;;;;;;16.30;99.90;;;;;;5050835;28;19938;-95
2023/07/01 05:43:25;;;;;;;;;;;16.30;99.90;;;;;;5055261;28;19947;-92
2023/07/01 05:45:51;;;;;;;;;;;16.30;99.90;;;;;;5043567;28;19925;-94
2023/07/01 05:48:17;;;;;;;;;;;16.40;99.90;;;;;;5047531;28;20000;-94
2023/07/01 05:50:42;;;;;;;;;;;16.40;99.90;;;;;;5063316;28;19936;-95
2023/07/01 05:53:08;;;;;;;;;;;16.40;99.90;;;;;;5049769;28;19940;-90
2023/07/01 05:55:35;;;;;;;;;;;16.40;99.90;;;;;;5024531;28;20453;-91
2023/07/01 05:58:00;;;;;;;;;;;16.30;99.90;;;;;;5043933;28;19928;-94
2023/07/01 06:00:26;;;;;;;;;;;16.40;99.90;;;;;;5046038;28;20335;-96
2023/07/01 06:02:51;;;;;;;;;;;16.40;99.90;;;;;;5023311;28;19925;-95
2023/07/01 06:05:17;;;;;;;;;;;16.30;99.90;;;;;;5041145;28;19931;-93
2023/07/01 06:07:44;;;;;;;;;;;16.30;99.90;;;;;;5038000;28;20207;-96
2023/07/01 06:10:10;;;;;;;;;;;16.30;99.90;;;;;;5042303;28;20451;-93
2023/07/01 06:12:36;;;;;;;;;;;16.30;99.90;;;;;;5040069;28;19972;-95
2023/07/01 06:15:01;;;;;;;;;;;16.30;99.90;;;;;;5047802;28;20035;-92
2023/07/01 06:17:27;;;;;;;;;;;16.30;99.90;;;;;;5035551;28;19975;-95
2023/07/01 06:19:52;;;;;;;;;;;16.30;99.90;;;;;;5025352;28;20296;-94
2023/07/01 06:22:18;;;;;;;;;;;16.40;99.90;;;;;;5037607;28;19975;-93
2023/07/01 06:24:43;;;;;;;;;;;16.40;99.90;;;;;;5050088;28;19964;-91
2023/07/01 06:27:09;;;;;;;;;;;16.40;99.90;;;;;;5048323;28;19980;-95
2023/07/01 06:29:35;;;;;;;;;;;16.30;99.90;;;;;;5052929;28;19933;-96
2023/07/01 06:32:00;;;;;;;;;;;16.20;99.90;;;;;;5053075;28;19979;-95
2023/07/01 06:34:26;;;;;;;;;;;16.20;99.90;;;;;;5061082;28;19925;-91
2023/07/01 06:36:52;;;;;;;;;;;16.10;99.90;;;;;;5055008;28;19956;-92
2023/07/01 06:39:17;;;;;;;;;;;16.10;99.90;;;;;;5075408;28;19925;-91
2023/07/01 06:41:43;;;;;;;;;;;16.10;99.90;;;;;;5058839;28;19924;-92
2023/07/01 06:44:08;;;;;;;;;;;16.10;99.90;;;;;;5055075;28;19936;-93
2023/07/01 06:46:34;;;;;;;;;;;16.10;99.90;;;;;;5070875;28;19980;-90
2023/07/01 06:48:59;;;;;;;;;;;16.10;99.90;;;;;;5059241;28;19940;-91
2023/07/01 06:51:25;;;;;;;;;;;16.00;99.90;;;;;;5042289;28;19925;-93
2023/07/01 06:53:51;;;;;;;;;;;16.10;99.90;;;;;;5053069;28;19979;-94
2023/07/01 06:56:16;;;;;;;;;;;16.10;99.90;;;;;;5047964;28;19972;-90
2023/07/01 06:58:42;;;;;;;;;;;16.10;99.90;;;;;;5032619;28;19925;-92
2023/07/01 07:01:07;;;;;;;;;;;16.10;99.90;;;;;;5033317;28;19925;-89
2023/07/01 07:03:33;;;;;;;;;;;16.20;99.90;;;;;;5035866;28;19928;-91
2023/07/01 07:06:02;;;;;;;;;;;16.20;99.90;;;;;;5034879;28;19932;-91
2023/07/01 07:08:28;;;;;;;;;;;16.30;99.90;;;;;;5039586;28;20004;-92
2023/07/01 07:10:53;;;;;;;;;;;16.20;99.90;;;;;;5027087;28;19925;-92
2023/07/01 07:13:19;;;;;;;;;;;16.20;99.90;;;;;;5046840;28;19932;-90
2023/07/01 07:15:44;;;;;;;;;;;16.20;99.90;;;;;;5049119;28;19925;-91
2023/07/01 07:18:10;;;;;;;;;;;16.30;99.90;;;;;;5034660;28;20344;-89
2023/07/01 07:20:37;;;;;;;;;;;16.40;99.90;;;;;;5051081;28;19932;-92
2023/07/01 07:23:05;;;;;;;;;;;16.40;99.90;;;;;;5037810;28;19931;-92
2023/07/01 07:25:31;;;;;;;;;;;16.50;99.90;;;;;;5045262;28;19936;-90
2023/07/01 07:27:57;;;;;;;;;;;16.50;99.90;;;;;;5033975;28;19925;-90
2023/07/01 07:30:22;;;;;;;;;;;16.50;99.90;;;;;;5038351;28;19979;-92
2023/07/01 07:32:48;;;;;;;;;;;16.50;99.90;;;;;;5051795;28;19925;-90
2023/07/01 07:35:13;;;;;;;;;;;16.60;99.90;;;;;;5032268;28;19971;-91
2023/07/01 07:37:39;;;;;;;;;;;16.60;99.90;;;;;;5036274;28;20028;-88
2023/07/01 07:40:07;;;;;;;;;;;16.60;99.90;;;;;;5047195;28;19964;-91
2023/07/01 07:42:33;;;;;;;;;;;16.60;99.90;;;;;;5041064;28;19933;-90
2023/07/01 07:44:58;;;;;;;;;;;16.70;99.90;;;;;;5040038;28;19955;-91
2023/07/01 07:47:24;;;;;;;;;;;16.70;99.90;;;;;;5048143;28;20012;-89
2023/07/01 07:49:50;;;;;;;;;;;16.70;99.90;;;;;;5031305;28;19929;-91
2023/07/01 07:52:16;;;;;;;;;;;16.80;99.90;;;;;;5046413;28;20277;-90
2023/07/01 07:54:41;;;;;;;;;;;16.90;99.90;;;;;;5043160;28;19932;-90
2023/07/01 07:57:07;;;;;;;;;;;16.90;99.90;;;;;;5043287;28;19986;-89
2023/07/01 07:59:32;;;;;;;;;;;16.90;99.90;;;;;;5048998;28;19925;-88
2023/07/01 08:01:59;;;;;;;;;;;17.00;99.90;;;;;;5042587;28;20020;-89
2023/07/01 08:04:25;;;;;;;;;;;17.00;99.90;;;;;;5022865;28;19925;-90
2023/07/01 08:06:52;;;;;;;;;;;17.00;99.90;;;;;;5035710;28;19932;-89
2023/07/01 08:09:18;;;;;;;;;;;17.20;99.90;;;;;;5045267;28;19925;-90
2023/07/01 08:11:44;;;;;;;;;;;17.00;99.90;;;;;;5047505;28;19932;-89
2023/07/01 08:14:09;;;;;;;;;;;17.10;99.90;;;;;;5035849;28;20429;-88
2023/07/01 08:16:35;;;;;;;;;;;17.00;99.90;;;;;;5032307;28;19932;-89
2023/07/01 08:19:00;;;;;;;;;;;17.00;99.90;;;;;;5049613;28;19975;-91
2023/07/01 08:21:26;;;;;;;;;;;17.00;99.90;;;;;;5055962;28;19929;-91
2023/07/01 08:23:52;;;;;;;;;;;17.10;99.90;;;;;;5018562;28;20399;-90
2023/07/01 08:26:17;;;;;;;;;;;17.10;99.90;;;;;;5044590;28;19932;-90
2023/07/01 08:28:43;;;;;;;;;;;17.20;99.90;;;;;;5051537;28;19924;-90
2023/07/01 08:31:08;;;;;;;;;;;17.20;99.90;;;;;;5054637;28;19932;-89
2023/07/01 08:33:34;;;;;;;;;;;17.20;99.90;;;;;;5049622;28;19983;-90
2023/07/01 08:36:00;;;;;;;;;;;17.20;99.90;;;;;;5035510;28;19951;-89
2023/07/01 08:38:25;;;;;;;;;;;17.30;99.90;;;;;;5014364;28;19925;-90
2023/07/01 08:40:52;;;;;;;;;;;17.40;99.90;;;;;;5052897;28;19925;-89
2023/07/01 08:43:20;;;;;;;;;;;17.40;99.90;;;;;;5050454;28;20024;-89
2023/07/01 08:45:49;;;;;;;;;;;17.40;99.90;;;;;;5055802;28;19971;-87
2023/07/01 08:48:16;;;;;;;;;;;17.50;99.90;;;;;;5053606;28;19982;-86
2023/07/01 08:51:05;;;;;;;;;;;17.50;99.90;;;;;;5029807;28;20254;-88
2023/07/01 08:53:31;;;;;;;;;;;17.60;99.90;;;;;;5040012;28;19933;-86
2023/07/01 08:55:57;;;;;;;;;;;17.70;99.90;;;;;;5045187;28;20356;-86
2023/07/01 08:58:23;;;;;;;;;;;17.70;99.90;;;;;;5037913;28;19936;-88
2023/07/01 09:00:49;;;;;;;;;;;17.70;99.90;;;;;;5041802;28;19925;-89
2023/07/01 09:03:15;;;;;;;;;;;17.70;99.90;;;;;;5054038;28;19925;-89
2023/07/01 09:05:41;;;;;;;;;;;17.80;99.90;;;;;;5037617;28;19934;-89
2023/07/01 09:08:06;;;;;;;;;;;17.80;99.90;;;;;;5043929;28;19944;-89
2023/07/01 09:10:32;;;;;;;;;;;17.90;99.90;;;;;;5038786;28;19925;-91
2023/07/01 09:13:13;;;;;;;;;;;17.90;99.90;;;;;;5012499;28;19925;-90
2023/07/01 09:15:43;;;;;;;;;;;17.90;99.90;;;;;;5047797;28;20391;-90
2023/07/01 09:18:31;;;;;;;;;;;17.90;99.90;;;;;;5037829;28;20278;-89
2023/07/01 09:20:57;;;;;;;;;;;17.80;99.90;;;;;;5033114;28;19976;-90
2023/07/01 09:23:27;;;;;;;;;;;17.90;99.90;;;;;;5039954;28;19928;-87
2023/07/01 09:25:53;;;;;;;;;;;17.90;99.90;;;;;;5052612;28;20281;-89
2023/07/01 09:28:29;;;;;;;;;;;17.90;99.90;;;;;;5042633;28;20373;-90
2023/07/01 09:30:58;;;;;;;;;;;17.90;99.90;;;;;;5049872;28;20297;-89
2023/07/01 09:33:24;;;;;;;;;;;17.80;99.90;;;;;;5041325;28;19933;-93
2023/07/01 09:35:55;;;;;;;;;;;17.80;99.90;;;;;;5034316;28;19925;-92
2023/07/01 09:38:21;;;;;;;;;;;17.80;99.90;;;;;;5049095;28;20332;-91
2023/07/01 09:40:46;;;;;;;;;;;17.80;99.90;;;;;;5046925;28;19933;-89
2023/07/01 09:43:12;;;;;;;;;;;17.90;99.90;;;;;;5041676;28;19948;-89
2023/07/01 09:45:51;;;;;;;;;;;17.90;99.90;;;;;;5028980;28;19925;-89
2023/07/01 09:48:18;;;;;;;;;;;17.90;99.90;;;;;;5052357;28;19925;-92
2023/07/01 09:50:44;;;;;;;;;;;18.00;99.90;;;;;;5052358;28;19928;-94
2023/07/01 09:53:36;;;;;;;;;;;18.10;99.90;;;;;;5052585;28;20288;-89
2023/07/01 09:56:03;;;;;;;;;;;18.10;99.90;;;;;;5049381;28;19924;-89
2023/07/01 09:58:30;;;;;;;;;;;18.10;99.90;;;;;;5047693;28;19986;-90
2023/07/01 10:00:57;;;;;;;;;;;18.10;99.90;;;;;;5051317;28;20007;-91
2023/07/01 10:03:23;;;;;;;;;;;18.10;99.90;;;;;;5019344;28;20376;-92
2023/07/01 10:05:50;;;;;;;;;;;18.10;99.90;;;;;;5043993;28;19956;-90
2023/07/01 10:08:15;;;;;;;;;;;18.10;99.90;;;;;;5028071;28;19932;-90
2023/07/01 10:10:41;;;;;;;;;;;18.00;99.90;;;;;;5029640;28;19924;-90
2023/07/01 10:13:06;;;;;;;;;;;18.10;99.90;;;;;;5032354;28;19932;-91
2023/07/01 10:15:33;;;;;;;;;;;18.00;99.90;;;;;;5036041;28;20329;-95
2023/07/01 10:17:59;;;;;;;;;;;18.00;99.90;;;;;;5045475;28;20004;-91
2023/07/01 10:20:28;;;;;;;;;;;17.90;99.90;;;;;;5043435;28;20052;-92
2023/07/01 10:22:57;;;;;;;;;;;17.90;99.90;;;;;;5043941;28;19976;-92
2023/07/01 10:25:30;;;;;;;;;;;17.80;99.90;;;;;;5041495;28;19925;-91
2023/07/01 10:27:59;;;;;;;;;;;17.70;99.90;;;;;;5051494;28;19981;-90
2023/07/01 10:30:25;;;;;;;;;;;17.80;99.90;;;;;;5045281;28;19928;-91
2023/07/01 10:32:50;;;;;;;;;;;17.90;99.90;;;;;;5053006;28;20392;-90
2023/07/01 10:35:16;;;;;;;;;;;18.00;99.90;;;;;;5047177;28;19932;-91
2023/07/01 10:37:43;;;;;;;;;;;18.30;99.90;;;;;;5043666;28;19933;-95
2023/07/01 10:40:27;;;;;;;;;;;18.50;99.90;;;;;;5057172;28;19924;-91
2023/07/01 10:43:13;;;;;;;;;;;18.60;99.90;;;;;;5052485;28;19925;-93
2023/07/01 10:45:39;;;;;;;;;;;18.80;99.90;;;;;;5042899;28;19960;-93
2023/07/01 10:48:11;;;;;;;;;;;18.80;99.90;;;;;;5030015;28;19932;-94
2023/07/01 10:51:09;;;;;;;;;;;18.80;99.90;;;;;;5050218;28;19929;-91
2023/07/01 10:53:54;;;;;;;;;;;18.70;99.90;;;;;;5027664;28;19925;-93
2023/07/01 10:56:20;;;;;;;;;;;18.50;99.90;;;;;;5039537;28;19925;-89
2023/07/01 10:58:45;;;;;;;;;;;18.50;99.90;;;;;;5056732;28;19925;-90
2023/07/01 11:01:31;;;;;;;;;;;18.40;99.90;;;;;;5054860;28;19925;-92
2023/07/01 11:03:57;;;;;;;;;;;18.40;99.90;;;;;;5042314;28;20012;-92
2023/07/01 11:06:23;;;;;;;;;;;18.50;99.90;;;;;;5045007;28;19925;-93
2023/07/01 11:08:50;;;;;;;;;;;18.60;99.90;;;;;;5054644;28;20416;-93
2023/07/01 11:11:20;;;;;;;;;;;18.50;99.90;;;;;;5063595;28;19925;-90
2023/07/01 11:13:55;;;;;;;;;;;18.50;99.90;;;;;;5068136;28;19925;-92
2023/07/01 11:16:21;;;;;;;;;;;18.60;99.90;;;;;;5060750;28;19933;-91
2023/07/01 11:18:48;;;;;;;;;;;18.60;99.90;;;;;;5066649;28;19925;-90
2023/07/01 11:21:17;;;;;;;;;;;18.70;99.90;;;;;;5060737;28;19952;-93
2023/07/01 11:23:50;;;;;;;;;;;18.70;99.90;;;;;;5054284;28;19924;-92
2023/07/01 11:26:27;;;;;;;;;;;18.50;99.90;;;;;;5047421;28;19913;-94
2023/07/01 11:28:53;;;;;;;;;;;18.50;99.90;;;;;;5072164;28;19982;-90
2023/07/01 11:31:20;;;;;;;;;;;18.50;99.90;;;;;;5058869;28;19913;-89
2023/07/01 11:33:47;;;;;;;;;;;18.50;99.90;;;;;;5047965;28;19985;-89
2023/07/01 11:36:14;;;;;;;;;;;18.40;99.90;;;;;;5070362;28;19995;-91
2023/07/01 11:38:46;;;;;;;;;;;18.40;99.90;;;;;;5073149;28;19921;-92
2023/07/01 11:41:12;;;;;;;;;;;18.50;99.90;;;;;;5060315;28;19912;-91
2023/07/01 11:43:38;;;;;;;;;;;18.80;99.90;;;;;;5076009;28;19917;-91
2023/07/01 11:46:04;;;;;;;;;;;18.90;99.90;;;;;;5051383;28;19913;-89
2023/07/01 11:48:33;;;;;;;;;;;19.10;99.90;;;;;;5072532;28;19963;-90
2023/07/01 11:50:59;;;;;;;;;;;19.30;99.90;;;;;;5062867;28;19913;-91
2023/07/01 11:53:26;;;;;;;;;;;19.80;99.90;;;;;;5075905;28;19932;-92
2023/07/01 11:55:51;;;;;;;;;;;20.10;99.90;;;;;;5058230;28;20021;-96
2023/07/01 11:58:26;;;;;;;;;;;20.20;99.90;;;;;;5057206;28;19924;-92
2023/07/01 12:00:51;;;;;;;;;;;20.30;99.90;;;;;;5054516;28;19925;-90
2023/07/01 12:03:17;;;;;;;;;;;20.30;99.90;;;;;;5067248;28;19925;-92
2023/07/01 12:05:43;;;;;;;;;;;19.90;99.90;;;;;;5032417;28;19924;-91
2023/07/01 12:08:09;;;;;;;;;;;19.80;99.90;;;;;;5043761;28;19952;-92
2023/07/01 12:10:39;;;;;;;;;;;19.70;99.90;;;;;;5056043;28;19925;-90
2023/07/01 12:13:08;;;;;;;;;;;19.50;99.90;;;;;;5038508;28;19925;-91
2023/07/01 12:15:50;;;;;;;;;;;19.40;99.90;;;;;;5061557;28;20576;-92
2023/07/01 12:18:22;;;;;;;;;;;19.30;99.90;;;;;;5049160;28;19925;-94
2023/07/01 12:20:48;;;;;;;;;;;19.20;99.90;;;;;;5049993;28;19923;-88
2023/07/01 12:23:14;;;;;;;;;;;19.10;99.90;;;;;;5075974;28;19913;-92
2023/07/01 12:25:39;;;;;;;;;;;19.20;99.90;;;;;;5077078;28;19912;-89
2023/07/01 12:28:05;;;;;;;;;;;19.50;99.90;;;;;;5045966;28;19912;-92
2023/07/01 12:30:30;;;;;;;;;;;19.80;99.90;;;;;;5078079;28;19925;-91
2023/07/01 12:32:56;;;;;;;;;;;19.80;99.90;;;;;;5066175;28;19933;-92
2023/07/01 12:35:22;;;;;;;;;;;19.70;99.90;;;;;;5045582;28;19925;-94
2023/07/01 12:37:47;;;;;;;;;;;19.60;99.90;;;;;;5062875;28;19964;-91
2023/07/01 12:40:13;;;;;;;;;;;19.50;99.90;;;;;;5057410;28;19973;-90
2023/07/01 12:42:39;;;;;;;;;;;19.40;99.90;;;;;;5059461;28;19939;-92
2023/07/01 12:45:08;;;;;;;;;;;19.40;99.90;;;;;;5070511;28;19928;-92
2023/07/01 12:47:34;;;;;;;;;;;19.40;99.90;;;;;;5068672;28;19928;-90
2023/07/01 12:49:59;;;;;;;;;;;19.40;99.90;;;;;;5028123;28;20292;-90
2023/07/01 12:52:25;;;;;;;;;;;19.50;99.90;;;;;;5015852;28;19971;-95
2023/07/01 12:54:52;;;;;;;;;;;19.60;99.90;;;;;;5034121;28;19936;-92
2023/07/01 12:57:18;;;;;;;;;;;19.70;99.90;;;;;;5024666;28;19925;-91
2023/07/01 12:59:45;;;;;;;;;;;19.90;99.90;;;;;;5048344;28;19924;-92
2023/07/01 13:02:11;;;;;;;;;;;20.00;99.90;;;;;;5049459;28;19999;-93
2023/07/01 13:04:38;;;;;;;;;;;20.20;99.90;;;;;;5044456;28;19925;-92
2023/07/01 13:07:04;;;;;;;;;;;20.20;99.90;;;;;;5032213;28;19929;-94
2023/07/01 13:09:30;;;;;;;;;;;20.20;99.90;;;;;;5027167;28;19925;-95
2023/07/01 13:11:55;;;;;;;;;;;20.10;99.90;;;;;;5036563;28;19924;-91
2023/07/01 13:14:22;;;;;;;;;;;19.70;99.90;;;;;;5046164;28;19925;-90
2023/07/01 13:16:48;;;;;;;;;;;19.60;99.90;;;;;;5058594;28;19925;-94
2023/07/01 13:19:14;;;;;;;;;;;19.40;99.90;;;;;;5052434;28;19925;-94
2023/07/01 13:21:41;;;;;;;;;;;19.50;99.90;;;;;;5054706;28;19940;-95
2023/07/01 13:24:08;;;;;;;;;;;19.60;99.90;;;;;;5050738;28;19925;-96
2023/07/01 13:26:34;;;;;;;;;;;19.80;99.90;;;;;;5047526;28;19925;-94
2023/07/01 13:28:59;;;;;;;;;;;19.60;99.90;;;;;;5040216;28;19924;-96
2023/07/01 13:31:25;;;;;;;;;;;19.60;99.90;;;;;;5037153;28;19925;-95
2023/07/01 13:36:37;;;;;;;;;;;19.40;99.90;;;;;;5033053;28;19936;-96
2023/07/01 13:39:09;;;;;;;;;;;19.50;99.90;;;;;;5038909;22;19929;-94
2023/07/01 13:44:16;;;;;;;;;;;19.80;99.90;;;;;;5028279;22;19975;-96
2023/07/01 13:46:41;;;;;;;;;;;19.70;99.90;;;;;;5015966;28;20012;-96
2023/07/01 13:49:07;;;;;;;;;;;19.60;99.90;;;;;;5024325;28;19925;-93
2023/07/01 13:51:37;;;;;;;;;;;19.40;99.90;;;;;;5016857;28;19930;-94
2023/07/01 13:54:06;;;;;;;;;;;19.30;99.90;;;;;;5017767;28;20293;-96
2023/07/01 13:56:32;;;;;;;;;;;19.20;99.90;;;;;;5025565;28;19921;-91
2023/07/01 13:58:58;;;;;;;;;;;19.20;99.90;;;;;;5018424;28;19944;-94
2023/07/01 14:01:23;;;;;;;;;;;19.00;99.90;;;;;;5014794;28;20376;-96
2023/07/01 14:03:53;;;;;;;;;;;19.00;99.90;;;;;;5018264;28;20020;-95
2023/07/01 14:06:19;;;;;;;;;;;18.80;99.90;;;;;;4985534;28;20266;-92
2023/07/01 14:08:44;;;;;;;;;;;18.90;99.90;;;;;;5015925;28;20025;-92
2023/07/01 14:11:12;;;;;;;;;;;18.80;99.90;;;;;;5009479;28;20006;-92
2023/07/01 14:13:39;;;;;;;;;;;18.90;99.90;;;;;;5008599;28;19929;-92
2023/07/01 14:16:05;;;;;;;;;;;18.90;99.90;;;;;;5012438;28;19964;-95
2023/07/01 14:18:30;;;;;;;;;;;19.00;99.90;;;;;;4990215;28;19976;-92
2023/07/01 14:21:07;;;;;;;;;;;18.80;99.90;;;;;;4998103;28;20461;-94